• Join FlightAware (Why Join?)
  • Login
  • US Flag 
02:36PM EDT


 

Airport Tracker/Info


-or-


 

Live Flight TrackerFlight Track Log ✈ SWA2166 ✈ 12-Apr-2013 ✈ KMCO - KBHM

Flight Track Log - Related Links

Times and Time Zones

All times are in EDT time to prevent confusion due to time zone crossing. See the SWA2166 flight status page for this flight to view local times or setup timezone preferences in your user account.

Time Position Orientation Groundspeed Altitude Reporting Facility
EDT Latitude Longitude Course Direction KTS MPH feet Rate Location/Type
05:09PM 28.4000 -81.3000 221° Southwest 150 173 1,000  Level Orlando TRACON
05:10PM 28.3667 -81.3333 221° Southwest 211 243 3,000 2,760 Climbing Orlando TRACON
05:11PM 28.3333 -81.3667 221° Southwest 221 254 6,000 3,300 Climbing Orlando TRACON
05:12PM 28.3500 -81.4333 286° West 255 293 9,300 2,880 Climbing Orlando TRACON
05:14PM 28.3942 -81.6372 284° West 312 359 15,300 3,540 Climbing Jacksonville Center
05:15PM 28.4142 -81.7503 281° West 332 382 20,600 3,540 Climbing Jacksonville Center
05:16PM 28.4294 -81.8375 281° West 332 382 22,400 2,220 Climbing Jacksonville Center
05:17PM 28.4553 -81.9364 287° West 332 382 25,100 2,280 Climbing Jacksonville Center
05:18PM 28.4769 -82.0542 282° West 337 388 27,000 2,040 Climbing Jacksonville Center
05:19PM 28.5006 -82.1628 284° West 343 395 29,200 1,800 Climbing Jacksonville Center
05:20PM 28.5242 -82.2783 283° West 355 409 30,700 1,500 Climbing Jacksonville Center
05:21PM 28.5517 -82.3961 285° West 374 430 32,300 1,620 Climbing Jacksonville Center
05:22PM 28.5792 -82.5167 285° West 384 442 34,000 840 Climbing Jacksonville Center
05:23PM 28.6547 -82.6111 312° West 385 443 34,000  Level Jacksonville Center
05:24PM 28.7550 -82.6914 325° Northwest 400 460 34,000 480 Level Jacksonville Center
05:25PM 28.8614 -82.7739 326° Northwest 434 499 35,000 1,320 Climbing Jacksonville Center
05:26PM 28.9658 -82.8594 324° Northwest 454 522 36,700 1,680 Climbing Jacksonville Center
05:27PM 29.0661 -82.9400 325° Northwest 459 528 38,400 1,620 Climbing Jacksonville Center
05:28PM 29.1642 -83.0211 324° Northwest 454 522 40,000 780 Climbing Jacksonville Center
05:29PM 29.2664 -83.1019 325° Northwest 454 522 40,000  Level Jacksonville Center
05:30PM 29.3642 -83.1833 324° Northwest 449 517 40,000  Level Jacksonville Center
05:31PM 29.4622 -83.2647 324° Northwest 444 511 40,000  Level Jacksonville Center
05:32PM 29.5622 -83.3461 325° Northwest 444 511 40,000  Level Jacksonville Center
05:33PM 29.6642 -83.4281 325° Northwest 444 511 40,000  Level Jacksonville Center
05:34PM 29.7639 -83.5075 325° Northwest 444 511 40,000  Level Jacksonville Center
05:35PM 29.8636 -83.5919 324° Northwest 444 511 40,000  Level Jacksonville Center
05:36PM 29.9614 -83.6717 325° Northwest 439 505 40,000  Level Jacksonville Center
05:37PM 30.0631 -83.7567 324° Northwest 446 513 40,000  Level Jacksonville Center
05:38PM 30.1669 -83.8417 325° Northwest 451 519 40,000  Level Jacksonville Center
05:39PM 30.2728 -83.9292 324° Northwest 451 519 40,000  Level Jacksonville Center
05:40PM 30.3764 -84.0147 325° Northwest 456 525 40,000  Level Jacksonville Center
05:41PM 30.4800 -84.1025 324° Northwest 461 531 40,000  Level Jacksonville Center
05:42PM 30.5731 -84.1833 323° Northwest 461 531 40,000 -360 Level Jacksonville Center
05:43PM 30.6786 -84.2717 324° Northwest 461 531 39,300 -900 Descending Jacksonville Center
05:44PM 30.7800 -84.3603 323° Northwest 461 531 38,300 -660 Descending Jacksonville Center
05:45PM 30.8856 -84.4467 325° Northwest 461 531 38,000 -180 Descending Jacksonville Center
05:46PM 30.9889 -84.5356 324° Northwest 461 531 38,000  Level Jacksonville Center
05:47PM 31.0919 -84.6247 323° Northwest 456 525 38,000  Level Jacksonville Center
05:48PM 31.1953 -84.7117 324° Northwest 456 525 38,000 -480 Level Jacksonville Center
05:49PM 31.2961 -84.7986 324° Northwest 456 525 37,100 -1,200 Descending Jacksonville Center
05:52PM 31.5486 -85.0186 323° Northwest 456 525 34,000 -1,020 Descending Atlanta Center
05:53PM 31.6503 -85.1000 326° Northwest 456 525 33,700 -600 Descending Atlanta Center
05:54PM 31.7414 -85.1792 324° Northwest 457 526 32,800 -960 Descending Atlanta Center
05:55PM 31.8428 -85.2661 324° Northwest 457 526 31,800 -1,020 Descending Atlanta Center
05:56PM 31.9422 -85.3531 323° Northwest 457 526 30,800 -1,020 Descending Atlanta Center
05:57PM 32.0392 -85.4403 323° Northwest 450 518 29,800 -1,020 Descending Atlanta Center
05:58PM 32.1300 -85.5228 322° Northwest 436 502 28,800 -1,080 Descending Atlanta Center
05:59PM 32.2294 -85.6006 327° Northwest 429 494 27,700 -1,200 Descending Atlanta Center
06:00PM 32.3369 -85.6811 328° Northwest 424 488 26,500 -1,140 Descending Atlanta Center
06:01PM 32.4278 -85.7517 327° Northwest 409 471 25,500 -1,020 Descending Atlanta Center
06:02PM 32.5228 -85.8225 328° Northwest 399 459 24,500 -1,020 Descending Atlanta Center
06:03PM 32.6114 -85.8908 327° Northwest 392 451 23,500 -1,140 Descending Atlanta Center
06:04PM 32.6981 -85.9567 327° Northwest 387 445 22,300 -1,620 Descending Atlanta Center
06:05PM 32.7828 -86.0203 328° Northwest 375 432 20,300 -1,980 Descending Atlanta Center
06:05PM 32.8300 -86.0658 321° Northwest 347 399 19,100 -1,920 Descending Atlanta Center
06:06PM 32.8653 -86.0842 336° Northwest 368 423 18,400 -1,920 Descending Atlanta Center
06:07PM 32.9414 -86.1478 325° Northwest 333 383 16,400 -1,980 Descending Atlanta Center
06:08PM 33.0175 -86.2017 329° Northwest 331 381 14,500 -1,740 Descending Atlanta Center
06:09PM 33.0919 -86.2531 330° Northwest 320 368 13,000 -1,380 Descending Atlanta Center
06:10PM 33.1642 -86.2969 333° Northwest 307 353 11,800 -1,320 Descending Atlanta Center
06:11PM 33.2300 -86.3408 331° Northwest 285 328 10,400 -1,560 Descending Atlanta Center
06:12PM 33.2939 -86.3847 330° Northwest 272 313 8,700 -1,440 Descending Atlanta Center
06:13PM 33.3433 -86.4211 328° Northwest 262 302 7,600 -1,440 Descending Atlanta Center
06:14PM 33.4050 -86.4775 323° Northwest 257 296 5,900 -1,740 Descending Atlanta Center
06:15PM 33.4622 -86.5289 323° Northwest 257 296 4,200 -1,380 Descending Atlanta Center
06:16PM 33.5297 -86.5931 322° Northwest 239 275 3,000 -840 Descending Atlanta Center
06:17PM 33.5769 -86.6369 322° Northwest 205 236 2,500 -420 Descending Atlanta Center
06:18PM 33.6053 -86.6753 312° West 153 176 2,200 -660 Descending Atlanta Center
06:19PM 33.5878 -86.7144 242° Southwest 126 145 1,300 -900 Descending Atlanta Center
06:21PM 33.5639 -86.7523 260° West  Level Estimated
06:28PM 33.5639 -86.7523 260° West  Level Estimated